Weldon, Iowa
Current Conditions -  °F | °C
As of 10:55 AM on Wednesday 22 Oct 2014 (Local Time) from KI75 Reporting Station
Broken Clouds Broken Clouds  
Wind Chill: 54°   Ceiling: 5000
Heat Index: 54°   Visibility: 10mi
Dew Point: 44°   Wind: 10mph
Humidity: 67%   Direction: 150°SSE
Pressure: 30.22"   Gusts: NA
Location:  40.9°N, 93.73°W
Report Text: KI75 221555Z AUTO 15009KT 10SM BKN050 BKN055 BKN085 12/06 A3022 RMK AO2 T01240064
Loading
Personal Weather Stations






























Interactive Weather Map
Tropical Storm Tracking
New forecast layout! Learn more

10-Day Weather Forecast

Advertisements
Track Severe Weather on mobile